Impacts TAF Board
For situational awareness. Not to be used for flight planning purposes.
IDs:

KPIT - Pittsburgh Intl, PA, US

Issued at 0859 UTC 24 Jan 2019
Updated at 1019 UTC 24 Jan 2019
Potential Impact None Slight Moderate High
Time<<24/23Z 25/00Z 25/01Z 25/02Z 25/03Z 25/04Z 25/05Z 25/06Z 25/07Z 25/08Z 25/09Z 25/10Z 25/11Z>>
Type PRVL PRVL PRVL PRVL PRVL PRVL PRVL PRVL PRVL PRVL PRVL PRVL PRVL
VIS >6 >6 >6 >6 >6 >6 >6 >6 >6 >6 >6 >6 >6
CIG 20 20 20 20 20 20 25 25 25 25 25 25 25
Cover BKN BKN BKN BKN BKN BKN BKN BKN BKN BKN BKN BKN BKN
FltCat MVFR MVFR MVFR MVFR MVFR MVFR MVFR MVFR MVFR MVFR MVFR MVFR MVFR
WX -- -- -- -- -- -- VCSH VCSH VCSH VCSH VCSH VCSH VCSH
WDir 280 280 280 280 280 280 260 260 260 260 260 260 260
WSpd 10 10 10 10 10 10 8 8 8 8 8 8 8
WGst -- -- -- -- -- -- -- -- -- -- -- -- --
Raw TAF
KPIT 240859Z 2409/2512 32010KT 3SM -RASN OVC003
  FM241200 32010G20KT 2SM -SN OVC006
  FM241600 30010G20KT P6SM VCSH OVC012
  FM242100 28010KT P6SM BKN020
  FM250500 26008KT P6SM VCSH BKN025


METAR Board
Radar Display
Forecast Discussion
For situational awareness. Not to be used for flight planning purposes.